This is the latest recevied weather packets stored in our database for station/object KF7IOR. If no packets are shown the sender has not sent any weather packets the latest 10 day(s).
| Time | Temp. | Humidity | Pressure | Rain* | Wind** | Luminosity | Snow |
|---|---|---|---|---|---|---|---|
| 1777494650 | 17.78° C | 48% | 1022 hPa | 0 mm | - | 800 W/m² | - |
| 1777494033 | 17.78° C | 49% | 1022.1 hPa | 0 mm | - | 802 W/m² | - |
| 1777493134 | 17.22° C | 51% | 1022.3 hPa | 0 mm | - | 802 W/m² | - |
| 1777491946 | 16.67° C | 51% | 1022.5 hPa | 0 mm | - | 795 W/m² | - |
| 1777489838 | 15° C | 54% | 1022.8 hPa | 0 mm | - | 768 W/m² | - |
| 1777489246 | 15.56° C | 54% | 1023 hPa | 0 mm | - | 759 W/m² | - |
| 1777488641 | 15.56° C | 53% | 1023.2 hPa | 0 mm | - | 751 W/m² | - |
| 1777487135 | 14.44° C | 60% | 1023.4 hPa | 0 mm | - | 715 W/m² | - |
| 1777486539 | 13.89° C | 63% | 1023.6 hPa | 0 mm | - | 693 W/m² | - |
| 1777486235 | 13.89° C | 64% | 1023.6 hPa | 0 mm | - | 691 W/m² | - |
| 1777485935 | 13.33° C | 61% | 1023.7 hPa | 0 mm | - | 679 W/m² | - |
| 1777485335 | 13.89° C | 62% | 1023.7 hPa | 0 mm | - | 670 W/m² | - |
| 1777483854 | 12.22° C | 66% | 1023.8 hPa | 0 mm | - | 612 W/m² | - |
| 1777483534 | 12.78° C | 67% | 1023.8 hPa | 0 mm | - | 601 W/m² | - |
| 1777480835 | 11.67° C | 69% | 1024.2 hPa | 0 mm | - | 504 W/m² | - |
| 1777478442 | 10° C | 73% | 1024.5 hPa | 0 mm | - | 371 W/m² | - |
| 1777478137 | 10° C | 75% | 1024.6 hPa | 0 mm | - | 323 W/m² | - |
| 1777476650 | 9.44° C | 78% | 1024.8 hPa | 0 mm | - | 214 W/m² | - |
| 1777474845 | 8.89° C | 80% | 1024.8 hPa | 0 mm | - | 172 W/m² | - |
| 1777472440 | 5° C | 89% | 1024.7 hPa | 0 mm | - | 105 W/m² | - |
| 1777470637 | 3.89° C | 90% | 1024.6 hPa | 0 mm | - | 21 W/m² | - |
| 1777470038 | 3.89° C | 89% | 1024.6 hPa | 0 mm | - | 18 W/m² | - |
| 1777467040 | 3.89° C | 89% | 1024.4 hPa | 0 mm | - | 0 W/m² | - |
| 1777466137 | 3.89° C | 88% | 1024.3 hPa | 0 mm | - | 0 W/m² | - |
| 1777464639 | 4.44° C | 88% | 1024.2 hPa | 0 mm | - | 0 W/m² | - |
* Rain latest hour (hover to see other rain measurements)
** Current wind speed in m/s (hover to see current wind gust speed)